createdAt,value
2022-09-26T00:02:15.100Z,10.02
2022-09-26T00:04:45.775Z,11.48
2022-09-26T00:07:17.064Z,13.93
2022-09-26T00:09:47.110Z,11.15
2022-09-26T00:12:17.950Z,13.50
2022-09-26T00:14:47.961Z,13.63
2022-09-26T00:17:18.034Z,13.32
2022-09-26T00:19:48.546Z,10.27
2022-09-26T00:22:18.828Z,11.45
2022-09-26T00:24:48.895Z,10.75
2022-09-26T00:27:18.973Z,13.65
2022-09-26T00:29:49.187Z,13.40
2022-09-26T00:32:19.524Z,13.77
2022-09-26T00:34:49.876Z,12.27
2022-09-26T00:37:20.015Z,14.75
2022-09-26T00:39:50.108Z,11.98
2022-09-26T00:42:20.564Z,11.80
2022-09-26T00:44:51.569Z,11.23
2022-09-26T00:47:40.738Z,13.23
2022-09-26T00:50:14.525Z,11.48
2022-09-26T00:52:47.604Z,10.57
2022-09-26T00:55:17.728Z,12.57
2022-09-26T00:57:49.437Z,11.13
2022-09-26T01:00:19.805Z,14.43
2022-09-26T01:02:51.090Z,16.83
2022-09-26T01:05:22.733Z,23.88
2022-09-26T01:07:53.999Z,18.37
2022-09-26T01:10:25.640Z,16.17
2022-09-26T01:12:57.021Z,16.75
2022-09-26T01:15:27.316Z,17.40
2022-09-26T01:17:57.501Z,26.67
2022-09-26T01:20:35.702Z,20.30
2022-09-26T01:23:07.415Z,14.77
2022-09-26T01:25:43.690Z,23.60
2022-09-26T01:28:28.398Z,16.83
2022-09-26T01:30:58.617Z,18.98
2022-09-26T01:33:31.545Z,16.05
2022-09-26T01:36:08.683Z,17.05
2022-09-26T01:38:54.286Z,19.17
2022-09-26T01:41:36.669Z,14.40
2022-09-26T01:44:07.545Z,13.40
2022-09-26T01:46:46.676Z,16.38
2022-09-26T01:49:19.176Z,20.00
2022-09-26T01:54:29.716Z,15.07
2022-09-26T01:56:59.956Z,15.80
2022-09-26T01:59:34.802Z,15.98
2022-09-26T02:02:14.952Z,16.58
2022-09-26T02:04:45.267Z,15.07
2022-09-26T02:07:18.922Z,15.95
2022-09-26T02:09:50.340Z,14.18
2022-09-26T02:12:22.363Z,19.15
2022-09-26T02:14:53.373Z,14.27
2022-09-26T02:17:24.611Z,14.95
2022-09-26T02:19:54.830Z,17.00
2022-09-26T02:22:25.946Z,13.90
2022-09-26T02:24:56.068Z,17.25
2022-09-26T02:27:26.964Z,13.60
2022-09-26T02:29:57.119Z,11.55
2022-09-26T02:32:29.187Z,14.43
2022-09-26T02:35:00.102Z,14.65
2022-09-26T02:37:33.430Z,12.40
2022-09-26T02:40:03.967Z,14.10
2022-09-26T02:42:44.225Z,15.27
2022-09-26T02:45:18.083Z,13.43
2022-09-26T02:47:50.684Z,14.10
2022-09-26T02:50:21.383Z,18.60
2022-09-26T02:53:11.659Z,14.15
2022-09-26T02:55:50.700Z,13.57
2022-09-26T02:58:24.086Z,16.05
2022-09-26T03:01:06.314Z,17.30
2022-09-26T03:03:38.009Z,14.38
2022-09-26T03:06:08.823Z,16.48
2022-09-26T03:08:43.715Z,19.30
2022-09-26T03:11:14.784Z,16.15
2022-09-26T03:13:44.778Z,16.13
2022-09-26T03:16:15.190Z,16.17
2022-09-26T03:18:52.565Z,13.00
2022-09-26T03:21:22.653Z,13.68
2022-09-26T03:23:52.707Z,13.48
2022-09-26T03:26:25.742Z,14.73
2022-09-26T03:28:58.839Z,15.07
2022-09-26T03:31:32.431Z,15.00
2022-09-26T03:34:09.528Z,18.17
2022-09-26T03:36:41.306Z,14.90
2022-09-26T03:39:13.736Z,15.00
2022-09-26T03:41:50.552Z,15.82
2022-09-26T03:44:23.733Z,12.63
2022-09-26T03:47:12.511Z,15.60
2022-09-26T03:49:47.383Z,17.27
2022-09-26T03:52:19.468Z,17.13
2022-09-26T03:54:51.096Z,16.75
2022-09-26T03:57:21.344Z,15.52
2022-09-26T03:59:59.768Z,17.50
2022-09-26T04:02:46.081Z,28.55
2022-09-26T04:05:37.207Z,17.83
2022-09-26T04:08:08.339Z,16.02
2022-09-26T04:10:39.932Z,26.27
2022-09-26T04:13:10.760Z,36.78
2022-09-26T04:15:40.782Z,55.72
2022-09-26T04:18:16.123Z,71.35
2022-09-26T04:20:46.299Z,110.65
2022-09-26T04:23:16.978Z,135.63
2022-09-26T04:25:47.767Z,139.02
2022-09-26T04:28:18.071Z,107.18
2022-09-26T04:30:48.146Z,97.28
2022-09-26T04:33:20.808Z,107.78
2022-09-26T04:36:06.240Z,100.85
2022-09-26T04:38:36.366Z,84.82
2022-09-26T04:41:07.672Z,101.03
2022-09-26T04:43:37.972Z,90.35
2022-09-26T04:46:11.730Z,80.10
2022-09-26T04:48:43.751Z,76.75
2022-09-26T04:51:22.725Z,92.00
2022-09-26T04:53:53.854Z,77.60
2022-09-26T04:56:31.478Z,65.28
2022-09-26T04:59:02.006Z,60.65
2022-09-26T05:01:52.142Z,60.20
2022-09-26T05:04:28.519Z,69.05
2022-09-26T05:07:00.448Z,68.93
2022-09-26T05:09:36.149Z,57.60
2022-09-26T05:12:19.364Z,50.10
2022-09-26T05:14:58.064Z,47.30
2022-09-26T05:17:28.965Z,40.50
2022-09-26T05:20:02.956Z,46.75
2022-09-26T05:22:53.633Z,31.58
2022-09-26T05:25:47.774Z,32.97
2022-09-26T05:28:22.760Z,34.75
2022-09-26T05:30:53.212Z,28.77
2022-09-26T05:33:24.382Z,37.95
2022-09-26T05:35:56.007Z,27.48
2022-09-26T05:38:26.060Z,29.45
2022-09-26T05:40:59.651Z,46.90
2022-09-26T05:43:32.277Z,50.75
2022-09-26T05:46:05.068Z,27.80
2022-09-26T05:48:42.759Z,53.22
2022-09-26T05:51:19.657Z,57.85
2022-09-26T05:53:50.636Z,49.33
2022-09-26T05:56:24.799Z,28.10
2022-09-26T05:59:22.295Z,35.38
2022-09-26T06:02:10.328Z,27.25
2022-09-26T06:04:58.264Z,24.63
2022-09-26T06:07:44.880Z,25.50
2022-09-26T06:10:24.901Z,30.13
2022-09-26T06:13:04.056Z,48.78
2022-09-26T06:15:38.869Z,43.15
2022-09-26T06:18:09.054Z,50.13
2022-09-26T06:20:40.128Z,48.63
2022-09-26T06:23:19.284Z,39.95
2022-09-26T06:25:51.244Z,46.83
2022-09-26T06:28:21.328Z,43.22
2022-09-26T06:30:53.054Z,34.70
2022-09-26T06:33:41.251Z,35.92
2022-09-26T06:36:37.671Z,32.50
2022-09-26T06:39:09.056Z,33.67
2022-09-26T06:41:39.916Z,38.83
2022-09-26T06:44:30.832Z,33.50
2022-09-26T06:47:19.145Z,30.63
2022-09-26T06:49:49.619Z,27.73
2022-09-26T06:52:35.857Z,27.17
2022-09-26T06:55:08.027Z,32.88
2022-09-26T06:57:41.668Z,20.67
2022-09-26T07:00:12.739Z,25.65
2022-09-26T07:03:06.045Z,31.77
2022-09-26T07:06:05.363Z,27.17
2022-09-26T07:09:01.097Z,36.03
2022-09-26T07:12:12.808Z,34.28
2022-09-26T07:14:38.805Z,39.55
2022-09-26T07:20:09.462Z,34.00
2022-09-26T07:22:58.727Z,26.80
2022-09-26T07:25:28.829Z,29.50
2022-09-26T07:27:58.845Z,20.05
2022-09-26T07:30:38.371Z,20.45
2022-09-26T07:33:36.781Z,26.10
2022-09-26T07:36:10.913Z,37.40
2022-09-26T07:38:41.286Z,40.03
2022-09-26T07:41:12.472Z,51.05
2022-09-26T07:44:34.576Z,45.70
2022-09-26T07:46:51.772Z,41.15
2022-09-26T07:49:41.584Z,36.17
2022-09-26T07:52:25.120Z,38.28
2022-09-26T07:55:19.143Z,36.03
2022-09-26T07:58:02.190Z,43.20
2022-09-26T08:00:58.676Z,42.58
2022-09-26T08:03:54.644Z,37.00
2022-09-26T08:06:30.293Z,30.13
2022-09-26T08:09:00.507Z,31.80
2022-09-26T08:12:08.933Z,43.55
2022-09-26T08:14:59.158Z,41.53
2022-09-26T08:17:44.540Z,33.13
2022-09-26T08:20:14.568Z,34.42
2022-09-26T08:22:44.688Z,38.92
2022-09-26T08:25:16.895Z,49.67
2022-09-26T08:28:01.365Z,34.08
2022-09-26T08:30:32.416Z,26.85
2022-09-26T08:33:05.739Z,28.58
2022-09-26T08:35:39.976Z,26.80
2022-09-26T08:41:18.424Z,17.05
2022-09-26T08:44:33.271Z,20.33
2022-09-26T08:50:41.621Z,15.45
2022-09-26T08:53:13.216Z,30.02
2022-09-26T08:55:56.880Z,46.63
2022-09-26T08:58:53.055Z,47.95
2022-09-26T09:01:29.517Z,41.63
2022-09-26T09:04:52.978Z,40.03
2022-09-26T09:07:26.331Z,39.67
2022-09-26T09:09:59.265Z,39.92
2022-09-26T09:12:58.580Z,41.03
2022-09-26T09:15:54.680Z,31.45
2022-09-26T09:18:52.398Z,29.90
2022-09-26T09:21:49.426Z,20.20
2022-09-26T09:24:44.186Z,18.58
2022-09-26T09:30:17.299Z,17.45
2022-09-26T09:33:03.546Z,20.20
2022-09-26T09:36:15.206Z,14.10
2022-09-26T09:39:08.698Z,19.92
2022-09-26T09:41:57.903Z,19.75
2022-09-26T09:44:47.136Z,16.95
2022-09-26T09:47:18.073Z,17.05
2022-09-26T09:49:51.627Z,20.92
2022-09-26T09:52:27.746Z,22.65
2022-09-26T09:55:13.919Z,21.70
2022-09-26T09:58:03.204Z,20.15
2022-09-26T10:00:38.314Z,17.67
2022-09-26T10:03:27.974Z,17.20
2022-09-26T10:06:01.687Z,22.40
2022-09-26T10:08:35.112Z,16.35
2022-09-26T10:11:33.148Z,20.25
2022-09-26T10:14:34.076Z,15.03
2022-09-26T10:17:13.389Z,15.27
2022-09-26T10:20:01.929Z,21.50
2022-09-26T10:22:39.042Z,15.27
2022-09-26T10:25:11.324Z,13.38
2022-09-26T10:27:42.075Z,16.15
2022-09-26T10:30:22.192Z,16.48
2022-09-26T10:32:56.967Z,20.00
2022-09-26T10:35:47.763Z,9.75
2022-09-26T10:38:28.513Z,15.43
2022-09-26T10:41:15.549Z,17.23
2022-09-26T10:43:46.999Z,9.05
2022-09-26T10:46:28.139Z,12.05
2022-09-26T10:49:16.384Z,17.50
2022-09-26T10:52:21.734Z,12.27
2022-09-26T10:55:12.613Z,22.13
2022-09-26T10:57:46.788Z,14.15
2022-09-26T11:00:23.166Z,21.73
2022-09-26T11:02:53.457Z,13.73
2022-09-26T11:05:41.776Z,15.05
2022-09-26T11:08:17.644Z,9.73
2022-09-26T11:11:12.573Z,13.23
2022-09-26T11:13:51.243Z,19.30
2022-09-26T11:16:22.754Z,8.32
2022-09-26T11:19:11.294Z,14.00
2022-09-26T11:21:43.908Z,11.85
2022-09-26T11:24:13.949Z,14.68
2022-09-26T11:27:06.786Z,10.55
2022-09-26T11:29:40.644Z,10.98
2022-09-26T11:32:26.436Z,13.07
2022-09-26T11:35:03.591Z,13.43
2022-09-26T11:37:38.789Z,13.25
2022-09-26T11:40:15.543Z,15.68
2022-09-26T11:43:00.941Z,9.20
2022-09-26T11:45:49.674Z,16.33
2022-09-26T11:49:02.150Z,13.55
2022-09-26T11:51:58.616Z,14.15
2022-09-26T11:54:47.502Z,12.65
2022-09-26T11:57:32.833Z,17.52
2022-09-26T12:00:17.480Z,13.93
2022-09-26T12:03:10.840Z,16.60
2022-09-26T12:05:56.143Z,16.50
2022-09-26T12:08:37.197Z,11.45
2022-09-26T12:11:16.425Z,14.35
2022-09-26T12:13:53.514Z,13.48
2022-09-26T12:16:23.753Z,16.63
2022-09-26T12:18:57.002Z,19.35
2022-09-26T12:22:07.903Z,21.23
2022-09-26T12:24:39.968Z,26.90
2022-09-26T12:27:19.344Z,22.38
2022-09-26T12:29:57.762Z,30.05
2022-09-26T12:32:48.217Z,31.90
2022-09-26T12:35:24.378Z,34.67
2022-09-26T12:38:06.639Z,32.60
2022-09-26T12:43:15.013Z,40.95
2022-09-26T12:46:03.555Z,35.17
2022-09-26T12:48:39.734Z,36.40
2022-09-26T12:51:10.038Z,34.67
2022-09-26T12:53:49.240Z,41.88
2022-09-26T12:56:42.126Z,39.95
2022-09-26T12:59:37.804Z,43.50
2022-09-26T13:02:18.293Z,44.67
2022-09-26T13:04:54.092Z,48.30
2022-09-26T13:07:27.068Z,39.60
2022-09-26T13:10:06.114Z,40.22
2022-09-26T13:12:48.599Z,41.90
2022-09-26T13:15:21.438Z,59.88
2022-09-26T13:17:59.519Z,56.38
2022-09-26T13:20:46.021Z,43.30
2022-09-26T13:23:19.507Z,41.65
2022-09-26T13:25:54.247Z,40.65
2022-09-26T13:28:25.381Z,42.05
2022-09-26T13:30:59.166Z,43.47
2022-09-26T13:33:42.778Z,51.55
2022-09-26T13:36:13.145Z,49.55
2022-09-26T13:38:52.957Z,48.05
2022-09-26T13:41:35.623Z,39.40
2022-09-26T13:44:12.061Z,50.78
2022-09-26T13:47:01.292Z,35.25
2022-09-26T13:49:46.987Z,45.40
2022-09-26T13:52:23.661Z,39.80
2022-09-26T13:54:58.615Z,40.72
2022-09-26T13:57:32.964Z,57.95
2022-09-26T14:00:18.233Z,50.50
2022-09-26T14:03:24.466Z,54.47
2022-09-26T14:05:54.764Z,51.33
2022-09-26T14:08:46.612Z,46.58
2022-09-26T14:11:28.616Z,52.10
2022-09-26T14:14:20.414Z,45.55
2022-09-26T14:16:54.285Z,50.13
2022-09-26T14:19:30.446Z,46.60
2022-09-26T14:22:04.502Z,46.60
2022-09-26T14:24:47.148Z,42.80
2022-09-26T14:29:54.199Z,37.83
2022-09-26T14:32:25.137Z,56.90
2022-09-26T14:35:00.379Z,43.80
2022-09-26T14:37:30.469Z,43.28
2022-09-26T14:40:03.629Z,39.25
2022-09-26T14:42:46.107Z,44.20
2022-09-26T14:45:19.105Z,42.72
2022-09-26T14:47:56.221Z,40.75
2022-09-26T14:50:36.640Z,35.67
2022-09-26T14:53:36.093Z,37.55
2022-09-26T14:56:07.671Z,42.33
2022-09-26T14:58:40.955Z,39.72
2022-09-26T15:01:20.091Z,36.72
2022-09-26T15:04:25.402Z,30.95
2022-09-26T15:06:56.871Z,41.63
2022-09-26T15:09:28.182Z,32.27
2022-09-26T15:12:01.397Z,34.28
2022-09-26T15:14:34.049Z,27.17
2022-09-26T15:17:04.130Z,27.80
2022-09-26T15:19:35.612Z,37.67
2022-09-26T15:22:07.434Z,31.13
2022-09-26T15:24:37.923Z,35.75
2022-09-26T15:27:28.418Z,32.50
2022-09-26T15:29:59.223Z,41.80
2022-09-26T15:32:29.938Z,32.17
2022-09-26T15:34:59.966Z,30.90
2022-09-26T15:37:31.302Z,33.42
2022-09-26T15:40:20.694Z,33.70
2022-09-26T15:42:59.760Z,34.90
2022-09-26T15:45:31.453Z,31.00
2022-09-26T15:48:05.223Z,34.28
2022-09-26T15:51:04.247Z,30.83
2022-09-26T15:53:37.662Z,38.95
2022-09-26T15:56:11.398Z,27.30
2022-09-26T15:58:42.041Z,31.75
2022-09-26T16:01:12.352Z,26.08
2022-09-26T16:03:46.529Z,34.65
2022-09-26T16:06:24.177Z,39.83
2022-09-26T16:09:07.322Z,25.88
2022-09-26T16:11:46.238Z,28.70
2022-09-26T16:14:27.656Z,34.00
2022-09-26T16:17:24.013Z,26.73
2022-09-26T16:19:55.527Z,27.83
2022-09-26T16:22:25.533Z,26.65
2022-09-26T16:24:55.975Z,25.98
2022-09-26T16:27:26.958Z,30.05
2022-09-26T16:30:00.080Z,25.10
2022-09-26T16:32:33.269Z,21.58
2022-09-26T16:35:14.370Z,25.13
2022-09-26T16:37:44.411Z,21.60
2022-09-26T16:40:19.328Z,26.40
2022-09-26T16:42:49.409Z,23.17
2022-09-26T16:45:28.407Z,25.17
2022-09-26T16:47:58.512Z,22.67
2022-09-26T16:50:34.337Z,23.25
2022-09-26T16:53:04.389Z,22.30
2022-09-26T16:55:35.519Z,23.90
2022-09-26T16:58:06.056Z,23.15
2022-09-26T17:00:54.720Z,23.58
2022-09-26T17:03:24.845Z,25.50
2022-09-26T17:05:56.772Z,23.85
2022-09-26T17:08:27.682Z,19.35
2022-09-26T17:10:58.305Z,22.05
2022-09-26T17:13:29.600Z,25.58
2022-09-26T17:16:04.675Z,21.02
2022-09-26T17:18:35.099Z,24.45
2022-09-26T17:21:05.384Z,23.42
2022-09-26T17:23:40.525Z,23.52
2022-09-26T17:26:14.797Z,21.75
2022-09-26T17:28:44.925Z,24.83
2022-09-26T17:31:20.506Z,23.27
2022-09-26T17:33:54.094Z,24.00
2022-09-26T17:36:28.420Z,23.13
2022-09-26T17:39:03.581Z,20.08
2022-09-26T17:41:35.565Z,23.00
2022-09-26T17:44:05.696Z,22.88
2022-09-26T17:46:38.607Z,24.90
2022-09-26T17:49:09.557Z,18.73
2022-09-26T17:51:39.609Z,22.08
2022-09-26T17:54:11.345Z,19.38
2022-09-26T17:56:42.320Z,20.20
2022-09-26T17:59:25.568Z,18.05
2022-09-26T18:01:57.703Z,18.25
2022-09-26T18:07:01.832Z,18.30
2022-09-26T18:09:33.246Z,20.85
2022-09-26T18:12:04.425Z,20.65
2022-09-26T18:14:34.605Z,18.20
2022-09-26T18:17:05.514Z,20.67
2022-09-26T18:19:38.793Z,19.23
2022-09-26T18:22:08.830Z,18.13
2022-09-26T18:24:38.815Z,18.15
2022-09-26T18:27:08.813Z,18.05
2022-09-26T18:29:39.807Z,19.13
2022-09-26T18:32:14.229Z,19.23
2022-09-26T18:34:44.276Z,17.55
2022-09-26T18:37:14.275Z,20.13
2022-09-26T18:39:44.405Z,20.60
2022-09-26T18:42:15.888Z,22.38
2022-09-26T18:44:45.879Z,18.40
2022-09-26T18:47:16.540Z,17.85
2022-09-26T18:49:47.516Z,15.88
2022-09-26T18:52:18.972Z,17.50
2022-09-26T18:55:08.783Z,17.10
2022-09-26T18:57:57.106Z,20.25
2022-09-26T19:00:29.027Z,19.10
2022-09-26T19:02:59.225Z,19.00
2022-09-26T19:05:29.256Z,18.20
2022-09-26T19:07:59.298Z,17.00
2022-09-26T19:10:29.291Z,17.30
2022-09-26T19:13:00.599Z,18.92
2022-09-26T19:15:31.481Z,19.50
2022-09-26T19:18:01.506Z,15.23
2022-09-26T19:20:31.532Z,18.52
2022-09-26T19:23:03.866Z,15.95
2022-09-26T19:28:03.705Z,19.30
2022-09-26T19:30:33.912Z,14.73
2022-09-26T19:33:03.939Z,18.20
2022-09-26T19:35:35.154Z,16.30
2022-09-26T19:38:05.872Z,15.77
2022-09-26T19:40:36.026Z,19.65
2022-09-26T19:43:06.956Z,19.60
2022-09-26T19:45:37.022Z,18.02
2022-09-26T19:48:07.247Z,18.23
2022-09-26T19:50:37.288Z,18.60
2022-09-26T19:53:17.286Z,17.00
2022-09-26T19:55:51.473Z,19.77
2022-09-26T19:58:25.236Z,15.38
2022-09-26T20:00:56.013Z,17.15
2022-09-26T20:03:32.114Z,16.52
2022-09-26T20:06:02.187Z,15.70
2022-09-26T20:08:32.231Z,17.52
2022-09-26T20:11:02.678Z,15.93
2022-09-26T20:13:52.496Z,16.63
2022-09-26T20:16:22.584Z,17.60
2022-09-26T20:18:54.332Z,16.65
2022-09-26T20:21:26.028Z,14.05
2022-09-26T20:23:56.780Z,14.85
2022-09-26T20:26:28.001Z,17.30
2022-09-26T20:28:58.308Z,15.13
2022-09-26T20:31:31.308Z,16.33
2022-09-26T20:34:01.327Z,17.27
2022-09-26T20:36:33.281Z,16.15
2022-09-26T20:39:04.331Z,18.75
2022-09-26T20:41:35.953Z,18.20
2022-09-26T20:44:41.625Z,16.02
2022-09-26T20:47:11.996Z,16.00
2022-09-26T20:50:00.411Z,14.63
2022-09-26T20:52:31.402Z,14.98
2022-09-26T20:55:01.533Z,16.15
2022-09-26T20:57:31.557Z,14.63
2022-09-26T21:00:01.704Z,14.57
2022-09-26T21:02:41.452Z,15.00
2022-09-26T21:05:37.535Z,13.45
2022-09-26T21:08:17.306Z,13.15
2022-09-26T21:10:47.387Z,15.38
2022-09-26T21:13:17.351Z,14.23
2022-09-26T21:15:47.369Z,12.48
2022-09-26T21:18:26.945Z,17.10
2022-09-26T21:20:57.058Z,13.93
2022-09-26T21:26:09.156Z,12.45
2022-09-26T21:28:39.371Z,12.32
2022-09-26T21:31:09.441Z,13.50
2022-09-26T21:33:40.093Z,11.75
2022-09-26T21:36:10.632Z,13.63
2022-09-26T21:38:40.683Z,14.18
2022-09-26T21:41:10.807Z,14.65
2022-09-26T21:43:41.405Z,12.90
2022-09-26T21:46:11.571Z,13.40
2022-09-26T21:48:41.697Z,13.63
2022-09-26T21:51:13.978Z,14.13
2022-09-26T21:56:17.791Z,13.70
2022-09-26T21:58:47.819Z,12.90
2022-09-26T22:01:19.162Z,11.50
2022-09-26T22:03:50.124Z,15.20
2022-09-26T22:06:20.593Z,12.38
2022-09-26T22:08:51.457Z,15.15
2022-09-26T22:11:22.223Z,11.50
2022-09-26T22:13:52.316Z,12.65
2022-09-26T22:16:22.524Z,13.07
2022-09-26T22:18:53.049Z,10.85
2022-09-26T22:21:23.738Z,11.98
2022-09-26T22:23:53.802Z,12.27
2022-09-26T22:26:23.860Z,12.48
2022-09-26T22:28:53.867Z,12.40
2022-09-26T22:31:24.003Z,15.80
2022-09-26T22:33:54.523Z,11.05
2022-09-26T22:36:25.551Z,11.38
2022-09-26T22:38:56.048Z,12.03
2022-09-26T22:41:26.666Z,15.27
2022-09-26T22:43:56.740Z,12.60
2022-09-26T22:46:26.851Z,11.50
2022-09-26T22:48:57.708Z,13.57
2022-09-26T22:51:28.471Z,14.73
2022-09-26T22:53:58.541Z,13.25
2022-09-26T22:56:28.577Z,12.05
2022-09-26T22:58:58.679Z,14.55
2022-09-26T23:01:30.246Z,10.13
2022-09-26T23:04:01.625Z,12.38
2022-09-26T23:06:32.286Z,11.82
2022-09-26T23:09:02.449Z,9.73
2022-09-26T23:11:33.039Z,11.93
2022-09-26T23:14:03.301Z,12.13
2022-09-26T23:16:33.949Z,15.98
2022-09-26T23:19:04.112Z,13.30
2022-09-26T23:21:34.247Z,11.93
2022-09-26T23:24:06.026Z,11.90
2022-09-26T23:26:36.285Z,11.52
2022-09-26T23:29:06.433Z,13.48
2022-09-26T23:31:36.938Z,13.25
2022-09-26T23:34:07.774Z,13.02
2022-09-26T23:36:37.822Z,10.10
2022-09-26T23:39:08.174Z,11.88
2022-09-26T23:41:38.573Z,12.77
2022-09-26T23:44:08.851Z,16.55
2022-09-26T23:46:39.370Z,11.68
2022-09-26T23:49:09.639Z,14.18
2022-09-26T23:51:39.725Z,13.50
2022-09-26T23:54:09.839Z,11.38
2022-09-26T23:56:39.913Z,12.48
2022-09-26T23:59:10.183Z,10.60
